createdAt,value
2019-02-06T00:01:10.016Z,1.58
2019-02-06T00:07:05.019Z,1.75
2019-02-06T00:13:00.044Z,1.67
2019-02-06T00:18:55.039Z,1.76
2019-02-06T00:24:50.027Z,1.52
2019-02-06T00:30:45.010Z,1.78
2019-02-06T00:36:40.025Z,1.73
2019-02-06T00:42:35.031Z,1.61
2019-02-06T00:48:30.038Z,1.31
2019-02-06T00:54:25.030Z,1.73
2019-02-06T01:00:20.067Z,1.17
2019-02-06T01:06:15.049Z,1.3
2019-02-06T01:12:10.042Z,1.31
2019-02-06T01:18:05.045Z,1.41
2019-02-06T01:24:00.046Z,1.31
2019-02-06T01:29:55.065Z,1.44
2019-02-06T01:35:50.348Z,1.24
2019-02-06T01:41:45.057Z,1.13
2019-02-06T01:47:40.102Z,1.29
2019-02-06T01:53:35.071Z,1.08
2019-02-06T01:59:30.042Z,1.16
2019-02-06T02:05:25.068Z,1.08
2019-02-06T02:11:20.139Z,1.13
2019-02-06T02:17:15.109Z,1.13
2019-02-06T02:23:10.080Z,1.25
2019-02-06T02:29:05.103Z,1.36
2019-02-06T02:35:00.081Z,1.25
2019-02-06T02:40:55.157Z,1.27
2019-02-06T02:46:50.093Z,1.36
2019-02-06T02:52:45.127Z,1.16
2019-02-06T02:58:40.072Z,1.39
2019-02-06T03:04:35.093Z,1.21
2019-02-06T03:10:30.137Z,0.95
2019-02-06T03:16:25.165Z,1.3
2019-02-06T03:22:20.112Z,1.4
2019-02-06T03:28:15.143Z,1.31
2019-02-06T03:34:10.106Z,1.21
2019-02-06T03:40:05.106Z,1.13
2019-02-06T03:46:00.127Z,1.06
2019-02-06T03:51:55.239Z,1.14
2019-02-06T03:57:50.120Z,1.1
2019-02-06T04:03:45.126Z,1.4
2019-02-06T04:09:40.150Z,1.32
2019-02-06T04:15:35.152Z,1.31
2019-02-06T04:21:30.197Z,1.28
2019-02-06T04:27:25.160Z,1.07
2019-02-06T04:33:20.197Z,1.09
2019-02-06T04:39:15.131Z,1.19
2019-02-06T04:45:10.246Z,1.09
2019-02-06T04:51:05.144Z,1.06
2019-02-06T04:57:00.135Z,1.22
2019-02-06T05:02:55.151Z,1.06
2019-02-06T05:08:50.200Z,0.92
2019-02-06T05:14:45.157Z,1.01
2019-02-06T05:20:40.160Z,1.21
2019-02-06T05:26:35.177Z,0.94
2019-02-06T05:32:30.200Z,0.87
2019-02-06T05:38:25.190Z,1.49
2019-02-06T05:44:20.178Z,1.18
2019-02-06T05:50:15.192Z,1.3
2019-02-06T05:56:10.209Z,1.07
2019-02-06T06:02:05.177Z,1.17
2019-02-06T06:08:00.199Z,1.01
2019-02-06T06:13:55.201Z,1.08
2019-02-06T06:19:50.196Z,0.97
2019-02-06T06:25:45.204Z,1.02
2019-02-06T06:31:40.189Z,1.01
2019-02-06T06:37:35.202Z,1.1
2019-02-06T06:43:30.224Z,1.21
2019-02-06T06:49:25.226Z,0.99
2019-02-06T06:55:20.236Z,0.98
2019-02-06T07:01:15.235Z,0.94
2019-02-06T07:07:10.217Z,0.93
2019-02-06T07:13:05.264Z,0.87
2019-02-06T07:19:00.277Z,1.13
2019-02-06T07:24:55.233Z,1.1
2019-02-06T07:30:50.235Z,1.59
2019-02-06T07:36:45.235Z,1.33
2019-02-06T07:42:40.239Z,1.91
2019-02-06T07:48:35.225Z,2.16
2019-02-06T07:54:30.248Z,2.41
2019-02-06T08:00:25.244Z,1.59
2019-02-06T08:06:20.245Z,1.81
2019-02-06T08:12:15.252Z,3.18
2019-02-06T08:18:10.249Z,2.53
2019-02-06T08:24:05.275Z,1.86
2019-02-06T08:30:00.332Z,1.85
2019-02-06T08:35:55.281Z,1.71
2019-02-06T08:41:50.324Z,1.62
2019-02-06T08:47:45.284Z,1.56
2019-02-06T08:53:40.263Z,1.42
2019-02-06T08:59:36.194Z,1.65
2019-02-06T09:05:30.279Z,1.61
2019-02-06T09:11:25.298Z,1.34
2019-02-06T09:17:20.342Z,1.34
2019-02-06T09:23:15.290Z,1.38
2019-02-06T09:29:10.310Z,1.46
2019-02-06T09:35:05.301Z,1.42
2019-02-06T09:41:00.322Z,1.27
2019-02-06T09:46:55.347Z,1.55
2019-02-06T09:52:50.335Z,1.6
2019-02-06T09:58:45.337Z,1.94
2019-02-06T10:04:40.313Z,2.03
2019-02-06T10:10:35.355Z,1.98
2019-02-06T10:16:30.318Z,1.94
2019-02-06T10:22:25.314Z,1.65
2019-02-06T10:28:20.322Z,2.14
2019-02-06T10:34:15.363Z,2.16
2019-02-06T10:40:10.349Z,1.96
2019-02-06T10:46:05.343Z,1.64
2019-02-06T10:52:00.351Z,2
2019-02-06T10:57:55.355Z,2.37
2019-02-06T11:03:50.375Z,2.52
2019-02-06T11:09:46.451Z,2.56
2019-02-06T11:15:40.406Z,3.09
2019-02-06T11:21:35.359Z,2.07
2019-02-06T11:27:30.356Z,2.35
2019-02-06T11:33:25.377Z,2.09
2019-02-06T11:39:20.361Z,2.41
2019-02-06T11:45:15.372Z,1.57
2019-02-06T11:51:10.353Z,1.17
2019-02-06T11:57:05.381Z,1.62
2019-02-06T12:03:00.408Z,2.35
2019-02-06T12:08:55.379Z,1.97
2019-02-06T12:14:50.380Z,2.29
2019-02-06T12:20:45.405Z,1.99
2019-02-06T12:26:40.407Z,1.8
2019-02-06T12:32:35.411Z,1.77
2019-02-06T12:38:30.398Z,1.71
2019-02-06T12:44:25.396Z,1.99
2019-02-06T12:50:20.407Z,2.13
2019-02-06T12:56:15.418Z,2.57
2019-02-06T13:02:10.404Z,1.9
2019-02-06T13:08:05.428Z,1.78
2019-02-06T13:14:00.444Z,1.96
2019-02-06T13:19:55.430Z,2.46
2019-02-06T13:25:50.442Z,2.02
2019-02-06T13:31:45.433Z,1.96
2019-02-06T13:37:40.429Z,1.77
2019-02-06T13:43:35.434Z,2.07
2019-02-06T13:49:30.428Z,2.6
2019-02-06T13:55:25.476Z,3.19
2019-02-06T14:01:25.498Z,2.48
2019-02-06T14:07:15.438Z,2.81
2019-02-06T14:13:10.462Z,2.34
2019-02-06T14:19:05.456Z,2.37
2019-02-06T14:25:00.452Z,2.96
2019-02-06T14:30:55.462Z,2.55
2019-02-06T14:36:50.453Z,2.74
2019-02-06T14:42:45.463Z,4.75
2019-02-06T14:48:40.465Z,3.11
2019-02-06T14:54:35.484Z,2.08
2019-02-06T15:00:30.505Z,3.24
2019-02-06T15:06:25.500Z,2.6
2019-02-06T15:12:20.474Z,2.85
2019-02-06T15:18:15.493Z,3.58
2019-02-06T15:24:10.480Z,3.54
2019-02-06T15:30:05.493Z,2.53
2019-02-06T15:36:00.545Z,2.75
2019-02-06T15:41:55.502Z,2.97
2019-02-06T15:47:50.503Z,2.34
2019-02-06T15:53:48.123Z,3.37
2019-02-06T15:59:40.530Z,3.2
2019-02-06T16:05:35.496Z,3.8
2019-02-06T16:11:41.619Z,3.46
2019-02-06T16:17:25.508Z,2.49
2019-02-06T16:23:20.547Z,3.38
2019-02-06T16:29:15.505Z,3.97
2019-02-06T16:35:10.572Z,2.76
2019-02-06T16:41:05.561Z,5.12
2019-02-06T16:47:00.526Z,3.34
2019-02-06T16:52:55.565Z,3
2019-02-06T16:58:50.527Z,4.69
2019-02-06T17:04:45.570Z,2.95
2019-02-06T17:10:40.571Z,5.53
2019-02-06T17:16:35.566Z,2.64
2019-02-06T17:22:30.538Z,2.49
2019-02-06T17:28:25.565Z,2.77
2019-02-06T17:34:20.585Z,3.91
2019-02-06T17:40:15.586Z,5.28
2019-02-06T17:46:10.568Z,2.73
2019-02-06T17:52:05.565Z,3.47
2019-02-06T17:58:00.558Z,4.57
2019-02-06T18:03:55.615Z,3.5
2019-02-06T18:09:50.591Z,3.42
2019-02-06T18:15:45.621Z,3.45
2019-02-06T18:21:40.602Z,2.85
2019-02-06T18:27:35.609Z,4.2
2019-02-06T18:33:30.579Z,4.38
2019-02-06T18:39:25.627Z,6.33
2019-02-06T18:45:20.588Z,2.88
2019-02-06T18:51:15.594Z,4.8
2019-02-06T18:57:10.619Z,3.23
2019-02-06T19:03:05.636Z,3.74
2019-02-06T19:09:00.627Z,3.13
2019-02-06T19:14:55.603Z,2.32
2019-02-06T19:20:50.637Z,2.57
2019-02-06T19:26:45.610Z,2.61
2019-02-06T19:32:40.702Z,4.89
2019-02-06T19:38:35.642Z,2.88
2019-02-06T19:44:30.615Z,4.85
2019-02-06T19:50:25.644Z,4.62
2019-02-06T19:56:20.630Z,3.25
2019-02-06T20:02:15.652Z,3.11
2019-02-06T20:08:10.669Z,2.99
2019-02-06T20:14:05.649Z,3.33
2019-02-06T20:20:00.651Z,2.31
2019-02-06T20:25:55.663Z,2.68
2019-02-06T20:31:50.653Z,3.17
2019-02-06T20:37:45.665Z,2.52
2019-02-06T20:43:40.644Z,2.57
2019-02-06T20:49:35.651Z,2.36
2019-02-06T20:55:30.694Z,2.14
2019-02-06T21:01:25.734Z,2.2
2019-02-06T21:07:20.684Z,1.78
2019-02-06T21:13:15.684Z,2.38
2019-02-06T21:19:10.705Z,1.87
2019-02-06T21:25:05.693Z,1.81
2019-02-06T21:31:00.717Z,1.64
2019-02-06T21:36:55.708Z,3.12
2019-02-06T21:42:50.693Z,1.64
2019-02-06T21:48:45.693Z,1.54
2019-02-06T21:54:40.714Z,1.34
2019-02-06T22:00:35.731Z,2
2019-02-06T22:06:30.710Z,1.78
2019-02-06T22:12:25.725Z,1.48
2019-02-06T22:18:20.741Z,1.29
2019-02-06T22:24:15.725Z,1.26
2019-02-06T22:30:10.732Z,1.81
2019-02-06T22:36:05.725Z,1.44
2019-02-06T22:42:00.724Z,1.25
2019-02-06T22:47:55.742Z,1.63
2019-02-06T22:53:50.724Z,1.12
2019-02-06T22:59:45.750Z,1.11
2019-02-06T23:05:40.760Z,1.36
2019-02-06T23:11:35.813Z,1.24
2019-02-06T23:17:30.760Z,1.54
2019-02-06T23:23:25.738Z,1.37
2019-02-06T23:29:20.798Z,1.24
2019-02-06T23:35:15.740Z,1.23
2019-02-06T23:41:10.766Z,1.15
2019-02-06T23:47:05.769Z,1.39
2019-02-06T23:53:00.803Z,1.14
2019-02-06T23:58:58.355Z,1.73
